Wuyishan, China
Current Conditions -  °F | °C
As of 12:00 PM on Sunday 26 Oct 2014 (Local Time) from ZSFZ Reporting Station
Few Clouds Few Clouds  
Wind Chill: 79°   Ceiling: Unl
Heat Index: 80°   Visibility: 6mi
Dew Point: 57°   Wind: 9mph
Humidity: 47%   Direction: 80°E
Pressure: 30.06"   Gusts: NA
Location:  27.77°N, 118.03°E
Report Text: ZSFZ 260400Z 08004MPS 9999 FEW040 26/14 Q1018 NOSIG
Loading
Personal Weather Stations






























Interactive Weather Map
Tropical Storm Tracking
New forecast layout! Learn more

10-Day Weather Forecast

Advertisements
Track Severe Weather on mobile